Somerville, Texas
Current Conditions -  °F | °C
As of 8:55 PM on Monday 22 Dec 2014 (Local Time) from K11R Reporting Station
Clear Clear  
Wind Chill: 60°   Ceiling: Unl
Heat Index: 60°   Visibility: 10mi
Dew Point: 56°   Wind: 5mph
Humidity: 87%   Direction: 310°NW
Pressure: 29.68"   Gusts: NA
Location:  30.35°N, 96.53°W
Report Text: K11R 230255Z AUTO 31004KT 10SM CLR 16/14 A2968 RMK AO2 T01580136
Loading
Personal Weather Stations






























Interactive Weather Map New forecast layout! Learn more

10-Day Weather Forecast

Advertisements
Track Severe Weather on mobile